createdAt,value
2018-02-27T05:00:36.648Z,76.64
2018-02-27T05:01:02.113Z,76.64
2018-02-27T05:01:27.600Z,76.92
2018-02-27T05:01:53.130Z,76.92
2018-02-27T05:02:18.566Z,76.73
2018-02-27T05:02:44.076Z,76.92
2018-02-27T05:03:09.566Z,76.64
2018-02-27T05:03:35.052Z,76.73
2018-02-27T05:04:00.557Z,76.82
2018-02-27T05:04:26.059Z,76.54
2018-02-27T05:04:51.588Z,76.64
2018-02-27T05:05:17.073Z,76.54
2018-02-27T05:05:42.540Z,77.01
2018-02-27T05:06:08.014Z,76.92
2018-02-27T05:06:33.465Z,76.82
2018-02-27T05:06:58.934Z,76.45
2018-02-27T05:07:24.461Z,76.45
2018-02-27T05:07:49.913Z,76.73
2018-02-27T05:08:15.453Z,76.64
2018-02-27T05:08:40.904Z,77.01
2018-02-27T05:09:06.472Z,76.54
2018-02-27T05:09:31.918Z,76.54
2018-02-27T05:09:57.400Z,76.54
2018-02-27T05:10:22.923Z,76.64
2018-02-27T05:10:48.368Z,76.73
2018-02-27T05:11:13.854Z,76.73
2018-02-27T05:11:39.364Z,76.64
2018-02-27T05:12:05.190Z,76.73
2018-02-27T05:12:30.649Z,77.01
2018-02-27T05:12:56.059Z,76.45
2018-02-27T05:13:21.523Z,77.01
2018-02-27T05:13:47.271Z,76.92
2018-02-27T05:14:12.743Z,76.64
2018-02-27T05:14:38.170Z,77.01
2018-02-27T05:15:03.685Z,76.64
2018-02-27T05:15:29.248Z,76.45
2018-02-27T05:15:54.760Z,76.73
2018-02-27T05:16:20.243Z,76.73
2018-02-27T05:16:45.706Z,76.82
2018-02-27T05:17:11.237Z,76.92
2018-02-27T05:17:36.821Z,76.64
2018-02-27T05:18:02.218Z,76.73
2018-02-27T05:18:27.662Z,76.92
2018-02-27T05:18:53.131Z,76.92
2018-02-27T05:19:18.621Z,76.92
2018-02-27T05:19:44.087Z,76.64
2018-02-27T05:20:09.600Z,76.54
2018-02-27T05:20:35.064Z,76.54
2018-02-27T05:21:00.515Z,76.64
2018-02-27T05:21:25.973Z,76.54
2018-02-27T05:21:51.431Z,76.92
2018-02-27T05:22:17.126Z,76.82
2018-02-27T05:22:42.647Z,76.73
2018-02-27T05:23:08.165Z,76.92
2018-02-27T05:23:33.635Z,76.73
2018-02-27T05:23:59.048Z,76.64
2018-02-27T05:24:24.545Z,76.64
2018-02-27T05:24:50.005Z,76.92
2018-02-27T05:25:15.540Z,76.82
2018-02-27T05:25:40.962Z,76.73
2018-02-27T05:26:06.435Z,76.92
2018-02-27T05:26:31.970Z,76.64
2018-02-27T05:26:57.505Z,76.82
2018-02-27T05:27:22.988Z,76.64
2018-02-27T05:27:48.493Z,76.73
2018-02-27T05:28:13.970Z,76.64
2018-02-27T05:28:39.390Z,76.92
2018-02-27T05:29:04.818Z,76.92
2018-02-27T05:29:30.362Z,76.92
2018-02-27T05:29:55.820Z,77.11
2018-02-27T05:30:21.288Z,77.11
2018-02-27T05:30:46.789Z,77.3
2018-02-27T05:31:12.259Z,77.2
2018-02-27T05:31:37.765Z,77.2
2018-02-27T05:32:03.200Z,77.01
2018-02-27T05:32:28.671Z,76.82
2018-02-27T05:32:54.151Z,77.67
2018-02-27T05:33:19.629Z,77.49
2018-02-27T05:33:45.268Z,77.86
2018-02-27T05:34:10.604Z,76.92
2018-02-27T05:34:36.150Z,77.67
2018-02-27T05:35:01.558Z,77.49
2018-02-27T05:35:27.154Z,77.58
2018-02-27T05:35:52.675Z,77.58
2018-02-27T05:36:18.154Z,77.67
2018-02-27T05:36:43.615Z,77.3
2018-02-27T05:37:09.014Z,77.67
2018-02-27T05:37:34.499Z,77.49
2018-02-27T05:38:00.028Z,77.3
2018-02-27T05:38:25.522Z,77.2
2018-02-27T05:38:51.068Z,77.58
2018-02-27T05:39:16.528Z,77.39
2018-02-27T05:39:41.989Z,77.3
2018-02-27T05:40:07.481Z,77.39
2018-02-27T05:40:32.938Z,77.3
2018-02-27T05:40:58.423Z,77.67
2018-02-27T05:41:23.993Z,77.67
2018-02-27T05:41:49.433Z,77.67
2018-02-27T05:42:14.893Z,77.67
2018-02-27T05:42:40.467Z,77.58
2018-02-27T05:43:05.819Z,77.86
2018-02-27T05:43:31.333Z,77.58
2018-02-27T05:43:56.770Z,77.58
2018-02-27T05:44:22.308Z,77.67
2018-02-27T05:44:47.862Z,77.58
2018-02-27T05:45:13.327Z,77.67
2018-02-27T05:45:38.808Z,77.67
2018-02-27T05:46:04.325Z,77.58
2018-02-27T05:46:29.805Z,77.67
2018-02-27T05:46:55.358Z,77.3
2018-02-27T05:47:20.825Z,77.49
2018-02-27T05:47:46.362Z,77.49
2018-02-27T05:48:11.784Z,77.2
2018-02-27T05:48:37.293Z,77.49
2018-02-27T05:49:02.784Z,77.01
2018-02-27T05:49:28.252Z,77.2
2018-02-27T05:49:53.724Z,77.01
2018-02-27T05:50:19.266Z,77.01
2018-02-27T05:50:44.781Z,77.3
2018-02-27T05:51:10.270Z,77.49
2018-02-27T05:51:35.770Z,77.2
2018-02-27T05:52:01.267Z,77.2
2018-02-27T05:52:26.763Z,77.3
2018-02-27T05:52:52.243Z,77.11
2018-02-27T05:53:17.771Z,77.3
2018-02-27T05:53:43.281Z,77.67
2018-02-27T05:54:08.685Z,77.58
2018-02-27T05:54:34.214Z,77.39
2018-02-27T05:54:59.725Z,77.49
2018-02-27T05:55:25.238Z,77.77
2018-02-27T05:55:50.860Z,77.3
2018-02-27T05:56:16.645Z,77.3
2018-02-27T05:56:42.180Z,77.49
2018-02-27T05:57:07.606Z,77.49
2018-02-27T05:57:33.100Z,77.49
2018-02-27T05:57:58.551Z,77.49
2018-02-27T05:58:23.994Z,77.67
2018-02-27T05:58:49.636Z,77.39
2018-02-27T05:59:15.066Z,77.2
2018-02-27T05:59:40.543Z,77.3
2018-02-27T06:00:06.015Z,77.2
2018-02-27T06:00:31.502Z,77.67
2018-02-27T06:00:57.006Z,77.3
2018-02-27T06:01:22.498Z,77.58
2018-02-27T06:01:48.011Z,77.86
2018-02-27T06:02:13.901Z,77.67
2018-02-27T06:02:39.492Z,77.86
2018-02-27T06:03:37.984Z,77.86
2018-02-27T06:04:03.582Z,77.86
2018-02-27T06:04:29.093Z,77.67
2018-02-27T06:04:54.652Z,77.58
2018-02-27T06:05:20.047Z,77.39
2018-02-27T06:05:45.633Z,77.67
2018-02-27T06:06:11.088Z,77.58
2018-02-27T06:06:36.612Z,77.67
2018-02-27T06:07:02.099Z,77.58
2018-02-27T06:07:27.603Z,77.58
2018-02-27T06:07:53.159Z,77.3
2018-02-27T06:08:18.624Z,77.39
2018-02-27T06:08:44.110Z,77.77
2018-02-27T06:09:09.629Z,77.58
2018-02-27T06:09:35.095Z,77.67
2018-02-27T06:10:00.595Z,77.39
2018-02-27T06:10:26.081Z,77.3
2018-02-27T06:10:51.552Z,77.58
2018-02-27T06:11:17.045Z,77.67
2018-02-27T06:11:42.539Z,77.86
2018-02-27T06:12:08.041Z,77.67
2018-02-27T06:12:33.507Z,77.77
2018-02-27T06:12:59.126Z,77.86
2018-02-27T06:13:24.892Z,77.39
2018-02-27T06:13:50.378Z,77.49
2018-02-27T06:14:15.872Z,77.67
2018-02-27T06:14:41.310Z,77.67
2018-02-27T06:15:06.831Z,77.39
2018-02-27T06:15:32.292Z,77.2
2018-02-27T06:15:57.738Z,77.2
2018-02-27T06:16:23.172Z,77.49
2018-02-27T06:16:48.770Z,77.3
2018-02-27T06:17:14.575Z,77.39
2018-02-27T06:17:40.121Z,77.3
2018-02-27T06:18:05.570Z,77.49
2018-02-27T06:18:31.136Z,77.49
2018-02-27T06:18:56.589Z,77.3
2018-02-27T06:19:22.194Z,77.58
2018-02-27T06:19:47.591Z,77.49
2018-02-27T06:20:13.023Z,77.3
2018-02-27T06:20:38.634Z,77.3
2018-02-27T06:21:04.068Z,77.3
2018-02-27T06:21:29.551Z,77.3
2018-02-27T06:21:55.042Z,77.39
2018-02-27T06:22:20.500Z,77.67
2018-02-27T06:22:46.013Z,77.3
2018-02-27T06:23:11.549Z,77.39
2018-02-27T06:23:37.062Z,77.3
2018-02-27T06:24:02.538Z,77.39
2018-02-27T06:24:27.977Z,77.3
2018-02-27T06:24:53.463Z,77.67
2018-02-27T06:25:18.949Z,77.67
2018-02-27T06:25:44.483Z,77.67
2018-02-27T06:26:09.942Z,77.86
2018-02-27T06:26:35.425Z,77.67
2018-02-27T06:27:01.000Z,77.39
2018-02-27T06:27:26.459Z,77.3
2018-02-27T06:27:51.984Z,77.67
2018-02-27T06:28:17.403Z,77.77
2018-02-27T06:28:42.915Z,77.86
2018-02-27T06:29:08.367Z,77.58
2018-02-27T06:29:34.058Z,77.86
2018-02-27T06:29:59.375Z,77.58
2018-02-27T06:30:24.826Z,77.77
2018-02-27T06:30:50.256Z,77.39
2018-02-27T06:31:15.738Z,77.3
2018-02-27T06:31:41.262Z,77.3
2018-02-27T06:32:06.692Z,77.2
2018-02-27T06:32:32.169Z,77.2
2018-02-27T06:32:57.679Z,77.11
2018-02-27T06:34:11.489Z,77.11
2018-02-27T06:34:36.918Z,77.2
2018-02-27T06:35:02.466Z,77.39
2018-02-27T06:35:27.932Z,77.2
2018-02-27T06:35:53.485Z,77.67
2018-02-27T06:36:19.024Z,77.3
2018-02-27T06:36:44.624Z,77.49
2018-02-27T06:37:10.176Z,77.77
2018-02-27T06:37:35.688Z,77.39
2018-02-27T06:38:01.190Z,77.67
2018-02-27T06:38:26.707Z,77.58
2018-02-27T06:38:52.104Z,77.3
2018-02-27T06:39:17.650Z,77.2
2018-02-27T06:39:43.150Z,77.2
2018-02-27T06:40:08.662Z,77.2
2018-02-27T06:40:34.132Z,77.2
2018-02-27T06:40:59.664Z,77.3
2018-02-27T06:41:25.171Z,77.3
2018-02-27T06:41:50.775Z,77.3
2018-02-27T06:42:16.314Z,77.2
2018-02-27T06:42:41.803Z,77.58
2018-02-27T06:43:07.270Z,77.3
2018-02-27T06:43:32.905Z,77.58
2018-02-27T06:43:58.369Z,77.49
2018-02-27T06:44:23.882Z,77.77
2018-02-27T06:44:49.364Z,77.58
2018-02-27T06:45:14.881Z,77.39
2018-02-27T06:45:40.342Z,77.58
2018-02-27T06:46:05.838Z,77.77
2018-02-27T06:46:31.322Z,77.86
2018-02-27T06:46:56.760Z,77.96
2018-02-27T06:47:22.359Z,77.86
2018-02-27T06:47:47.790Z,77.86
2018-02-27T06:48:13.288Z,77.67
2018-02-27T06:48:38.833Z,77.86
2018-02-27T06:49:04.336Z,77.49
2018-02-27T06:49:29.824Z,77.58
2018-02-27T06:49:55.256Z,77.86
2018-02-27T06:50:20.746Z,77.67
2018-02-27T06:50:46.235Z,77.67
2018-02-27T06:51:11.817Z,77.86
2018-02-27T06:52:15.356Z,77.39
2018-02-27T06:52:40.817Z,77.86
2018-02-27T06:53:06.364Z,77.96
2018-02-27T06:53:31.826Z,77.86
2018-02-27T06:53:57.327Z,77.77
2018-02-27T06:54:23.189Z,77.3
2018-02-27T06:54:48.828Z,77.49
2018-02-27T06:55:14.900Z,78.05
2018-02-27T06:55:40.532Z,78.05
2018-02-27T06:56:05.949Z,78.15
2018-02-27T06:56:31.426Z,78.05
2018-02-27T06:56:56.871Z,78.15
2018-02-27T06:57:22.711Z,77.86
2018-02-27T06:57:47.981Z,78.24
2018-02-27T06:58:13.491Z,77.86
2018-02-27T06:58:39.025Z,77.86
2018-02-27T06:59:04.461Z,77.77
2018-02-27T06:59:29.936Z,78.05
2018-02-27T06:59:55.451Z,78.15
2018-02-27T07:00:21.034Z,77.77
2018-02-27T07:00:46.776Z,77.77
2018-02-27T07:01:12.362Z,78.15
2018-02-27T07:01:37.740Z,78.15
2018-02-27T07:02:03.205Z,78.05
2018-02-27T07:02:28.693Z,78.15
2018-02-27T07:02:54.208Z,78.05
2018-02-27T07:03:20.152Z,77.86
2018-02-27T07:03:45.687Z,78.15
2018-02-27T07:04:11.172Z,77.96
2018-02-27T07:05:25.009Z,78.15
2018-02-27T07:05:50.457Z,77.86
2018-02-27T07:06:16.002Z,77.96
2018-02-27T07:06:41.520Z,77.96
2018-02-27T07:07:07.019Z,78.05
2018-02-27T07:07:32.517Z,77.96
2018-02-27T07:07:58.114Z,77.96
2018-02-27T07:08:23.632Z,77.67
2018-02-27T07:08:49.139Z,78.15
2018-02-27T07:09:14.644Z,78.15
2018-02-27T07:09:40.137Z,78.34
2018-02-27T07:10:05.726Z,77.86
2018-02-27T07:10:31.224Z,77.86
2018-02-27T07:10:56.824Z,78.15
2018-02-27T07:11:22.344Z,78.15
2018-02-27T07:11:47.918Z,78.15
2018-02-27T07:12:13.397Z,78.05
2018-02-27T07:13:22.155Z,77.86
2018-02-27T07:13:47.798Z,77.86
2018-02-27T07:14:13.409Z,77.77
2018-02-27T07:14:38.907Z,77.77
2018-02-27T07:15:04.532Z,77.39
2018-02-27T07:15:30.040Z,77.96
2018-02-27T07:15:55.510Z,77.49
2018-02-27T07:16:22.124Z,77.86
2018-02-27T07:16:47.739Z,77.86
2018-02-27T07:17:13.185Z,77.86
2018-02-27T07:17:38.619Z,77.77
2018-02-27T07:18:04.388Z,77.86
2018-02-27T07:18:29.867Z,78.34
2018-02-27T07:18:55.292Z,78.05
2018-02-27T07:19:20.752Z,78.34
2018-02-27T07:19:46.603Z,78.05
2018-02-27T07:20:12.037Z,77.86
2018-02-27T07:20:37.577Z,77.86
2018-02-27T07:21:03.080Z,77.86
2018-02-27T07:21:28.546Z,77.77
2018-02-27T07:21:54.042Z,77.3
2018-02-27T07:22:19.558Z,77.67
2018-02-27T07:22:45.090Z,77.67
2018-02-27T07:23:10.564Z,77.49
2018-02-27T07:23:36.135Z,77.39
2018-02-27T07:24:01.568Z,77.39
2018-02-27T07:24:27.137Z,77.67
2018-02-27T07:24:52.608Z,77.3
2018-02-27T07:25:18.104Z,77.3
2018-02-27T07:25:43.594Z,77.3
2018-02-27T07:26:09.211Z,77.49
2018-02-27T07:26:34.833Z,77.3
2018-02-27T07:27:00.318Z,77.49
2018-02-27T07:27:25.913Z,77.3
2018-02-27T07:27:51.481Z,77.39
2018-02-27T07:28:17.005Z,77.86
2018-02-27T07:28:42.471Z,77.96
2018-02-27T07:29:07.908Z,77.77
2018-02-27T07:29:33.417Z,77.86
2018-02-27T07:29:58.892Z,77.86
2018-02-27T07:30:24.351Z,77.86
2018-02-27T07:30:49.866Z,77.39
2018-02-27T07:31:15.302Z,77.86
2018-02-27T07:31:40.812Z,77.39
2018-02-27T07:32:06.297Z,77.39
2018-02-27T07:32:31.795Z,77.3
2018-02-27T07:32:57.341Z,77.86
2018-02-27T07:33:22.752Z,77.77
2018-02-27T07:33:48.326Z,77.77
2018-02-27T07:34:13.919Z,77.58
2018-02-27T07:34:39.669Z,77.39
2018-02-27T07:35:05.220Z,77.3
2018-02-27T07:35:30.680Z,77.67
2018-02-27T07:35:56.208Z,77.3
2018-02-27T07:36:21.693Z,77.77
2018-02-27T07:36:47.235Z,77.39
2018-02-27T07:37:12.672Z,77.86
2018-02-27T07:37:38.158Z,77.67
2018-02-27T07:38:03.753Z,77.67
2018-02-27T07:38:29.199Z,77.86
2018-02-27T07:38:54.742Z,77.86
2018-02-27T07:39:20.236Z,77.39
2018-02-27T07:39:45.752Z,77.49
2018-02-27T07:40:11.343Z,77.58
2018-02-27T07:40:36.935Z,77.86
2018-02-27T07:41:02.905Z,77.49
2018-02-27T07:41:28.264Z,77.39
2018-02-27T07:41:53.856Z,77.39
2018-02-27T07:42:19.552Z,77.39
2018-02-27T07:42:45.247Z,77.67
2018-02-27T07:43:10.737Z,77.67
2018-02-27T07:43:36.291Z,76.92
2018-02-27T07:44:02.028Z,76.82
2018-02-27T07:44:27.565Z,77.01
2018-02-27T07:44:53.030Z,76.92
2018-02-27T07:45:18.496Z,77.39
2018-02-27T07:45:43.979Z,76.73
2018-02-27T07:46:09.494Z,76.82
2018-02-27T07:46:35.394Z,76.73
2018-02-27T07:47:00.856Z,76.92
2018-02-27T07:47:26.424Z,77.11
2018-02-27T07:47:51.915Z,77.11
2018-02-27T07:48:17.352Z,76.92
2018-02-27T07:48:42.839Z,76.82
2018-02-27T07:49:08.326Z,76.54
2018-02-27T07:49:33.832Z,76.54
2018-02-27T07:49:59.291Z,76.07
2018-02-27T07:50:24.769Z,76.26
2018-02-27T07:50:50.244Z,76.26
2018-02-27T07:51:15.800Z,76.17
2018-02-27T07:51:41.275Z,76.26
2018-02-27T07:52:40.771Z,76.54
2018-02-27T07:53:06.265Z,76.82
2018-02-27T07:53:31.776Z,76.64
2018-02-27T07:53:57.206Z,76.4
2018-02-27T07:54:22.682Z,76.92
2018-02-27T07:54:48.108Z,76.96
2018-02-27T07:55:13.610Z,76.96
2018-02-27T07:55:39.147Z,76.49
2018-02-27T07:56:04.574Z,76.77
2018-02-27T07:56:30.064Z,76.4
2018-02-27T07:56:55.519Z,76.21
2018-02-27T07:57:20.991Z,76.21
2018-02-27T07:57:46.449Z,76.3
2018-02-27T07:58:11.998Z,76.3
2018-02-27T07:58:37.380Z,76.3
2018-02-27T07:59:02.854Z,76.49
2018-02-27T07:59:28.283Z,75.92
2018-02-27T07:59:53.747Z,76.11
2018-02-27T08:00:19.194Z,75.83
2018-02-27T08:00:44.660Z,75.26
2018-02-27T08:01:10.105Z,75.17
2018-02-27T08:01:35.603Z,75.26
2018-02-27T08:02:01.089Z,75.36
2018-02-27T08:02:26.584Z,75.26
2018-02-27T08:02:52.017Z,75.54
2018-02-27T08:03:17.493Z,74.69
2018-02-27T08:03:42.930Z,74.88
2018-02-27T08:04:08.434Z,75.17
2018-02-27T08:04:33.976Z,74.51
2018-02-27T08:04:59.480Z,75.17
2018-02-27T08:05:24.923Z,74.98
2018-02-27T08:05:50.392Z,74.51
2018-02-27T08:06:15.906Z,74.51
2018-02-27T08:06:41.458Z,74.51
2018-02-27T08:07:06.912Z,75.17
2018-02-27T08:07:32.429Z,75.17
2018-02-27T08:07:57.907Z,74.51
2018-02-27T08:08:23.569Z,75.17
2018-02-27T08:08:49.094Z,75.07
2018-02-27T08:09:14.611Z,74.32
2018-02-27T08:09:40.194Z,74.32
2018-02-27T08:10:05.695Z,74.51
2018-02-27T08:10:31.188Z,74.32
2018-02-27T08:11:45.037Z,74.32
2018-02-27T08:12:10.514Z,74.32
2018-02-27T08:12:36.194Z,74.51
2018-02-27T08:13:01.695Z,74.41
2018-02-27T08:13:27.332Z,74.79
2018-02-27T08:13:52.848Z,74.98
2018-02-27T08:14:18.432Z,74.69
2018-02-27T08:14:43.938Z,75.17
2018-02-27T08:15:09.436Z,75.26
2018-02-27T08:15:34.935Z,74.98
2018-02-27T08:16:00.438Z,75.17
2018-02-27T08:16:25.891Z,74.98
2018-02-27T08:16:51.364Z,75.07
2018-02-27T08:17:16.794Z,75.45
2018-02-27T08:17:42.314Z,75.36
2018-02-27T08:18:08.130Z,75.26
2018-02-27T08:18:33.591Z,75.26
2018-02-27T08:18:59.098Z,75.36
2018-02-27T08:19:24.581Z,75.45
2018-02-27T08:19:49.995Z,75.07
2018-02-27T08:20:15.492Z,75.54
2018-02-27T08:20:41.002Z,75.23
2018-02-27T08:21:06.527Z,75.54
2018-02-27T08:21:31.975Z,75.26
2018-02-27T08:21:57.543Z,75.45
2018-02-27T08:22:22.965Z,75.26
2018-02-27T08:22:48.612Z,75.26
2018-02-27T08:23:14.293Z,75.36
2018-02-27T08:23:39.602Z,75.36
2018-02-27T08:24:05.145Z,75.54
2018-02-27T08:24:30.599Z,75.45
2018-02-27T08:24:56.243Z,75.45
2018-02-27T08:25:21.815Z,75.54
2018-02-27T08:25:47.285Z,75.54
2018-02-27T08:26:12.752Z,75.36
2018-02-27T08:26:38.304Z,75.07
2018-02-27T08:27:03.785Z,75.17
2018-02-27T08:27:29.294Z,74.69
2018-02-27T08:27:55.649Z,74.79
2018-02-27T08:28:20.441Z,74.69
2018-02-27T08:28:45.928Z,74.88
2018-02-27T08:29:11.363Z,74.69
2018-02-27T08:29:36.876Z,74.32
2018-02-27T08:30:02.324Z,74.41
2018-02-27T08:30:27.828Z,74.69
2018-02-27T08:30:53.332Z,73.85
2018-02-27T08:31:18.837Z,74.13
2018-02-27T08:31:44.328Z,74.32
2018-02-27T08:32:09.730Z,74.32
2018-02-27T08:32:35.276Z,73.94
2018-02-27T08:33:00.728Z,74.22
2018-02-27T08:33:26.143Z,74.04
2018-02-27T08:33:51.786Z,73.66
2018-02-27T08:34:17.254Z,73.85
2018-02-27T08:34:42.716Z,73.38
2018-02-27T08:35:08.225Z,73.28
2018-02-27T08:35:33.698Z,73.57
2018-02-27T08:35:59.179Z,73.47
2018-02-27T08:36:24.631Z,73.57
2018-02-27T08:36:50.129Z,73.19
2018-02-27T08:37:15.622Z,73.28
2018-02-27T08:37:41.134Z,73.1
2018-02-27T08:38:06.579Z,72.53
2018-02-27T08:38:32.040Z,72.91
2018-02-27T08:38:57.477Z,72.72
2018-02-27T08:39:22.986Z,72.44
2018-02-27T08:39:48.482Z,72.25
2018-02-27T08:40:13.915Z,71.96
2018-02-27T08:40:39.439Z,71.87
2018-02-27T08:41:05.064Z,72.06
2018-02-27T08:41:30.534Z,72.15
2018-02-27T08:41:55.977Z,72.25
2018-02-27T08:42:21.429Z,71.96
2018-02-27T08:42:46.943Z,71.21
2018-02-27T08:43:12.434Z,71.3
2018-02-27T08:43:37.890Z,71.21
2018-02-27T08:44:03.363Z,71.02
2018-02-27T08:44:28.764Z,70.92
2018-02-27T08:44:54.232Z,70.73
2018-02-27T08:45:19.718Z,70.73
2018-02-27T08:45:45.168Z,71.02
2018-02-27T08:46:10.696Z,71.11
2018-02-27T08:46:36.200Z,70.83
2018-02-27T08:47:01.708Z,71.06
2018-02-27T08:47:27.148Z,70.73
2018-02-27T08:47:52.644Z,70.68
2018-02-27T08:48:18.108Z,70.45
2018-02-27T08:48:43.575Z,70.02
2018-02-27T08:49:09.096Z,69.89
2018-02-27T08:49:34.697Z,69.73
2018-02-27T08:50:00.213Z,69.45
2018-02-27T08:50:25.671Z,69.7
2018-02-27T08:50:51.165Z,69.35
2018-02-27T08:51:16.816Z,68.79
2018-02-27T08:51:42.119Z,69.07
2018-02-27T08:52:07.592Z,68.88
2018-02-27T08:52:33.015Z,68.41
2018-02-27T08:52:58.589Z,68.13
2018-02-27T08:53:24.014Z,68.51
2018-02-27T08:53:49.476Z,68.41
2018-02-27T08:54:15.009Z,67.85
2018-02-27T08:54:40.622Z,68.41
2018-02-27T08:55:06.039Z,68.04
2018-02-27T08:55:31.541Z,68.23
2018-02-27T08:55:56.971Z,68.23
2018-02-27T08:56:22.478Z,68.23
2018-02-27T08:56:48.077Z,68.41
2018-02-27T08:57:13.624Z,68.23
2018-02-27T08:57:39.094Z,68.13
2018-02-27T08:58:04.589Z,68.13
2018-02-27T08:58:30.203Z,67.75
2018-02-27T08:58:55.685Z,67.94
2018-02-27T08:59:21.150Z,67.94
2018-02-27T08:59:46.657Z,68.13
2018-02-27T09:00:12.147Z,68.04
2018-02-27T09:00:37.626Z,68.23
2018-02-27T09:01:03.160Z,68.04
2018-02-27T09:01:28.614Z,67.66
2018-02-27T09:01:54.092Z,67.38
2018-02-27T09:02:19.545Z,67.28
2018-02-27T09:02:45.205Z,67.28
2018-02-27T09:03:10.563Z,66.24
2018-02-27T09:03:36.081Z,67.38
2018-02-27T09:04:01.658Z,66.9
2018-02-27T09:04:27.058Z,66.62
2018-02-27T09:04:52.545Z,66.34
2018-02-27T09:05:18.025Z,66.43
2018-02-27T09:05:43.464Z,66.43
2018-02-27T09:06:08.967Z,66.24
2018-02-27T09:06:34.431Z,67.09
2018-02-27T09:06:59.909Z,67
2018-02-27T09:07:25.397Z,67.19
2018-02-27T09:07:51.030Z,66.9
2018-02-27T09:08:16.327Z,67.09
2018-02-27T09:08:41.836Z,67.28
2018-02-27T09:09:07.281Z,67.28
2018-02-27T09:09:32.781Z,67.09
2018-02-27T09:09:58.394Z,67.38
2018-02-27T09:10:23.907Z,67.19
2018-02-27T09:10:49.343Z,67
2018-02-27T09:11:14.805Z,66.71
2018-02-27T09:11:40.318Z,66.52
2018-02-27T09:12:05.766Z,66.34
2018-02-27T09:12:31.317Z,66.05
2018-02-27T09:12:56.701Z,66.43
2018-02-27T09:13:22.201Z,66.05
2018-02-27T09:13:47.663Z,65.77
2018-02-27T09:14:13.122Z,65.39
2018-02-27T09:14:38.576Z,65.67
2018-02-27T09:15:04.050Z,65.48
2018-02-27T09:15:29.512Z,65.2
2018-02-27T09:15:54.996Z,65.67
2018-02-27T09:16:20.506Z,64.73
2018-02-27T09:16:45.981Z,64.73
2018-02-27T09:17:11.465Z,64.45
2018-02-27T09:17:36.927Z,64.73
2018-02-27T09:18:02.399Z,64.73
2018-02-27T09:18:27.847Z,64.45
2018-02-27T09:18:53.321Z,64.83
2018-02-27T09:19:18.876Z,64.73
2018-02-27T09:19:44.372Z,64.73
2018-02-27T09:20:09.794Z,64.73
2018-02-27T09:20:35.254Z,64.64
2018-02-27T09:21:00.810Z,64.54
2018-02-27T09:21:26.294Z,64.45
2018-02-27T09:21:51.734Z,64.36
2018-02-27T09:22:17.237Z,63.89
2018-02-27T09:22:42.664Z,63.51
2018-02-27T09:23:08.135Z,63.79
2018-02-27T09:23:33.631Z,63.51
2018-02-27T09:23:59.093Z,63.51
2018-02-27T09:24:24.615Z,63.22
2018-02-27T09:24:50.082Z,63.41
2018-02-27T09:25:15.560Z,63.6
2018-02-27T09:25:41.066Z,63.41
2018-02-27T09:26:06.522Z,63.32
2018-02-27T09:26:31.961Z,63.32
2018-02-27T09:26:57.440Z,63.13
2018-02-27T09:27:22.905Z,63.51
2018-02-27T09:27:48.396Z,63.7
2018-02-27T09:28:13.949Z,63.22
2018-02-27T09:28:39.546Z,63.03
2018-02-27T09:29:04.956Z,63.22
2018-02-27T09:29:30.463Z,63.7
2018-02-27T09:30:44.208Z,63.51
2018-02-27T09:31:09.732Z,63.51
2018-02-27T09:31:35.177Z,63.13
2018-02-27T09:32:00.667Z,63.32
2018-02-27T09:32:26.167Z,63.32
2018-02-27T09:32:51.620Z,63.32
2018-02-27T09:33:17.079Z,63.41
2018-02-27T09:33:42.594Z,63.32
2018-02-27T09:34:08.030Z,63.03
2018-02-27T09:34:33.472Z,63.51
2018-02-27T09:34:58.977Z,63.89
2018-02-27T09:35:24.384Z,63.98
2018-02-27T09:35:49.884Z,63.79
2018-02-27T09:36:15.334Z,63.89
2018-02-27T09:36:40.778Z,64.36
2018-02-27T09:37:06.315Z,64.17
2018-02-27T09:37:31.825Z,64.45
2018-02-27T09:37:57.244Z,64.45
2018-02-27T09:38:22.769Z,64.45
2018-02-27T09:38:48.271Z,64.54
2018-02-27T09:39:13.748Z,64.45
2018-02-27T09:39:39.282Z,64.17
2018-02-27T09:40:04.780Z,64.36
2018-02-27T09:40:30.264Z,64.36
2018-02-27T09:40:55.725Z,64.54
2018-02-27T09:41:21.223Z,64.83
2018-02-27T09:41:46.724Z,64.73
2018-02-27T09:42:12.214Z,64.92
2018-02-27T09:42:37.651Z,64.26
2018-02-27T09:43:03.233Z,64.07
2018-02-27T09:43:28.712Z,64.36
2018-02-27T09:43:54.206Z,64.76
2018-02-27T09:44:19.684Z,64.2
2018-02-27T09:44:45.205Z,63.7
2018-02-27T09:45:10.618Z,63.82
2018-02-27T09:45:36.077Z,64.07
2018-02-27T09:46:01.803Z,63.98
2018-02-27T09:46:27.351Z,64.17
2018-02-27T09:46:52.887Z,63.79
2018-02-27T09:47:18.355Z,63.89
2018-02-27T09:47:43.881Z,63.89
2018-02-27T09:48:09.410Z,63.7
2018-02-27T09:48:34.895Z,63.7
2018-02-27T09:49:00.385Z,63.98
2018-02-27T09:49:25.825Z,64.17
2018-02-27T09:49:51.275Z,64.07
2018-02-27T09:50:16.785Z,64.07
2018-02-27T09:50:42.277Z,64.17
2018-02-27T09:51:07.678Z,64.58
2018-02-27T09:51:33.183Z,64.45
2018-02-27T09:51:58.707Z,64.07
2018-02-27T09:52:24.170Z,64.01
2018-02-27T09:52:49.602Z,64.01
2018-02-27T09:53:15.259Z,64.2
2018-02-27T09:53:40.745Z,64.2
2018-02-27T09:54:06.172Z,63.82
2018-02-27T09:54:31.667Z,63.79
2018-02-27T09:54:57.246Z,63.82
2018-02-27T09:55:22.806Z,63.92
2018-02-27T09:55:48.159Z,63.73
2018-02-27T09:56:13.651Z,64.01
2018-02-27T09:56:39.059Z,64.01
2018-02-27T09:57:04.652Z,64.01
2018-02-27T09:57:30.128Z,64.01
2018-02-27T09:57:55.584Z,64.01
2018-02-27T09:58:21.196Z,63.54
2018-02-27T09:58:46.624Z,63.54
2018-02-27T09:59:12.075Z,63.54
2018-02-27T09:59:38.350Z,63.26
2018-02-27T10:00:03.195Z,63.35
2018-02-27T10:00:29.220Z,63.35
2018-02-27T10:00:54.920Z,63.54
2018-02-27T10:01:20.416Z,63.35
2018-02-27T10:01:45.938Z,63.26
2018-02-27T10:02:11.417Z,63.54
2018-02-27T10:02:36.917Z,63.45
2018-02-27T10:03:02.485Z,63.35
2018-02-27T10:03:27.878Z,63.35
2018-02-27T10:03:53.325Z,63.45
2018-02-27T10:04:18.831Z,63.35
2018-02-27T10:04:44.316Z,63.45
2018-02-27T10:05:09.752Z,63.26
2018-02-27T10:05:35.265Z,63.26
2018-02-27T10:06:00.973Z,63.35
2018-02-27T10:06:26.449Z,63.54
2018-02-27T10:06:51.962Z,63.07
2018-02-27T10:07:17.426Z,63.26
2018-02-27T10:07:42.899Z,63.54
2018-02-27T10:08:08.346Z,63.45
2018-02-27T10:08:33.835Z,63.63
2018-02-27T10:08:59.345Z,63.35
2018-02-27T10:09:24.830Z,63.45
2018-02-27T10:09:50.380Z,63.54
2018-02-27T10:10:16.006Z,63.54
2018-02-27T10:10:41.562Z,64.2
2018-02-27T10:11:07.151Z,64.11
2018-02-27T10:11:32.820Z,64.11
2018-02-27T10:11:58.171Z,63.92
2018-02-27T10:12:23.652Z,64.11
2018-02-27T10:12:49.134Z,64.29
2018-02-27T10:13:14.622Z,64.01
2018-02-27T10:13:40.136Z,63.82
2018-02-27T10:14:05.524Z,63.82
2018-02-27T10:14:31.060Z,63.82
2018-02-27T10:14:56.725Z,64.2
2018-02-27T10:15:22.792Z,64.01
2018-02-27T10:15:48.661Z,64.2
2018-02-27T10:16:14.470Z,64.11
2018-02-27T10:16:39.896Z,63.92
2018-02-27T10:17:05.424Z,63.82
2018-02-27T10:17:31.065Z,63.54
2018-02-27T10:17:56.659Z,63.35
2018-02-27T10:18:22.354Z,63.45
2018-02-27T10:18:47.724Z,63.26
2018-02-27T10:19:13.191Z,62.88
2018-02-27T10:19:38.685Z,63.45
2018-02-27T10:20:04.263Z,63.45
2018-02-27T10:20:31.086Z,63.35
2018-02-27T10:20:56.596Z,62.97
2018-02-27T10:21:22.099Z,63.45
2018-02-27T10:21:47.602Z,63.26
2018-02-27T10:22:13.256Z,63.45
2018-02-27T10:22:38.672Z,63.54
2018-02-27T10:23:04.160Z,63.35
2018-02-27T10:23:29.625Z,63.63
2018-02-27T10:23:55.297Z,63.63
2018-02-27T10:24:20.734Z,63.07
2018-02-27T10:24:46.212Z,62.78
2018-02-27T10:25:11.820Z,62.88
2018-02-27T10:25:37.289Z,62.88
2018-02-27T10:26:02.768Z,63.16
2018-02-27T10:26:28.230Z,63.73
2018-02-27T10:26:53.679Z,62.88
2018-02-27T10:27:19.130Z,62.97
2018-02-27T10:27:44.888Z,62.97
2018-02-27T10:28:10.249Z,62.78
2018-02-27T10:28:35.763Z,62.78
2018-02-27T10:29:01.283Z,62.78
2018-02-27T10:29:26.752Z,62.88
2018-02-27T10:29:52.317Z,62.69
2018-02-27T10:30:17.816Z,62.88
2018-02-27T10:30:43.279Z,62.78
2018-02-27T10:31:08.968Z,63.45
2018-02-27T10:31:34.454Z,62.88
2018-02-27T10:31:59.961Z,63.16
2018-02-27T10:32:25.451Z,63.54
2018-02-27T10:32:51.079Z,63.54
2018-02-27T10:33:16.383Z,63.54
2018-02-27T10:33:41.907Z,63.45
2018-02-27T10:34:07.442Z,63.35
2018-02-27T10:34:32.872Z,63.07
2018-02-27T10:34:58.397Z,63.54
2018-02-27T10:35:23.885Z,63.16
2018-02-27T10:35:49.418Z,63.54